Terminal Aerodrome Forecast
Issued by NWS Wilmington, OH

Current Version | Previous Version | Text Only | Print | Product List | Glossary Off
Versions: 1 2 3 4 5 6 7 8 9 10 11 12 13 14 15 16 17 18 19 20

000
FTUS41 KILN 280500
TAFCVG
TAF
KCVG 280536Z 2806/2912 01005KT P6SM SCT250
     FM281000 03004KT 5SM BR SCT250
     FM281300 06007KT P6SM SCT080 BKN250
     FM290200 08005KT P6SM SCT250
     FM290900 11004KT 5SM BR SCT250=

USA.gov is the U.S. government's official web portal to all federal, state and local government web resources and services.